sensor_id;sensor_type;location;lat;lon;timestamp;P1;durP1;ratioP1;P2;durP2;ratioP2
74851;SDS011;63400;50.650;6.832;2023-05-07T00:00:20;2.20;;;0.65;;
74851;SDS011;63400;50.650;6.832;2023-05-07T00:02:46;4.22;;;1.02;;
74851;SDS011;63400;50.650;6.832;2023-05-07T00:05:12;3.30;;;0.80;;
74851;SDS011;63400;50.650;6.832;2023-05-07T00:07:38;2.40;;;0.60;;
74851;SDS011;63400;50.650;6.832;2023-05-07T00:10:04;3.28;;;1.23;;
74851;SDS011;63400;50.650;6.832;2023-05-07T00:12:31;2.80;;;1.50;;
74851;SDS011;63400;50.650;6.832;2023-05-07T00:14:59;5.88;;;2.97;;
74851;SDS011;63400;50.650;6.832;2023-05-07T00:17:25;4.53;;;1.52;;
74851;SDS011;63400;50.650;6.832;2023-05-07T00:19:52;5.60;;;2.22;;
74851;SDS011;63400;50.650;6.832;2023-05-07T00:22:17;5.07;;;1.08;;
74851;SDS011;63400;50.650;6.832;2023-05-07T00:24:43;3.05;;;0.98;;
74851;SDS011;63400;50.650;6.832;2023-05-07T00:27:08;2.40;;;1.15;;
74851;SDS011;63400;50.650;6.832;2023-05-07T00:29:34;4.43;;;1.15;;
74851;SDS011;63400;50.650;6.832;2023-05-07T00:32:01;2.47;;;1.00;;
74851;SDS011;63400;50.650;6.832;2023-05-07T00:34:27;3.20;;;1.35;;
74851;SDS011;63400;50.650;6.832;2023-05-07T00:36:52;3.83;;;1.40;;
74851;SDS011;63400;50.650;6.832;2023-05-07T00:39:18;3.65;;;1.15;;
74851;SDS011;63400;50.650;6.832;2023-05-07T00:41:44;4.15;;;1.15;;
74851;SDS011;63400;50.650;6.832;2023-05-07T00:44:11;1.83;;;0.90;;
74851;SDS011;63400;50.650;6.832;2023-05-07T00:46:36;3.08;;;0.90;;
74851;SDS011;63400;50.650;6.832;2023-05-07T00:49:02;4.05;;;1.55;;
74851;SDS011;63400;50.650;6.832;2023-05-07T00:51:28;4.05;;;1.30;;
74851;SDS011;63400;50.650;6.832;2023-05-07T00:53:55;5.55;;;2.13;;
74851;SDS011;63400;50.650;6.832;2023-05-07T00:56:21;5.25;;;1.85;;
74851;SDS011;63400;50.650;6.832;2023-05-07T00:58:47;5.00;;;1.88;;
74851;SDS011;63400;50.650;6.832;2023-05-07T01:01:16;3.95;;;2.05;;
74851;SDS011;63400;50.650;6.832;2023-05-07T01:03:42;4.32;;;1.35;;
74851;SDS011;63400;50.650;6.832;2023-05-07T01:06:08;4.97;;;1.80;;
74851;SDS011;63400;50.650;6.832;2023-05-07T01:08:35;4.18;;;1.75;;
74851;SDS011;63400;50.650;6.832;2023-05-07T01:11:01;5.22;;;1.92;;
74851;SDS011;63400;50.650;6.832;2023-05-07T01:13:27;7.32;;;2.05;;
74851;SDS011;63400;50.650;6.832;2023-05-07T01:15:52;5.30;;;1.65;;
74851;SDS011;63400;50.650;6.832;2023-05-07T01:18:18;5.13;;;1.48;;
74851;SDS011;63400;50.650;6.832;2023-05-07T01:20:43;5.38;;;1.65;;
74851;SDS011;63400;50.650;6.832;2023-05-07T01:23:10;5.20;;;1.73;;
74851;SDS011;63400;50.650;6.832;2023-05-07T01:25:36;4.47;;;1.48;;
74851;SDS011;63400;50.650;6.832;2023-05-07T01:28:01;4.93;;;1.25;;
74851;SDS011;63400;50.650;6.832;2023-05-07T01:30:27;5.43;;;1.45;;
74851;SDS011;63400;50.650;6.832;2023-05-07T01:33:12;3.50;;;1.92;;
74851;SDS011;63400;50.650;6.832;2023-05-07T01:38:05;4.53;;;1.40;;
74851;SDS011;63400;50.650;6.832;2023-05-07T01:40:32;4.03;;;1.35;;
74851;SDS011;63400;50.650;6.832;2023-05-07T01:42:57;5.72;;;1.77;;
74851;SDS011;63400;50.650;6.832;2023-05-07T01:45:24;3.85;;;1.65;;
74851;SDS011;63400;50.650;6.832;2023-05-07T01:47:50;6.32;;;1.73;;
74851;SDS011;63400;50.650;6.832;2023-05-07T01:50:16;5.88;;;1.63;;
74851;SDS011;63400;50.650;6.832;2023-05-07T01:52:43;5.10;;;1.73;;
74851;SDS011;63400;50.650;6.832;2023-05-07T01:55:09;5.10;;;2.03;;
74851;SDS011;63400;50.650;6.832;2023-05-07T01:57:34;4.57;;;1.85;;
74851;SDS011;63400;50.650;6.832;2023-05-07T02:00:00;3.88;;;1.92;;
74851;SDS011;63400;50.650;6.832;2023-05-07T02:02:31;6.05;;;2.40;;
74851;SDS011;63400;50.650;6.832;2023-05-07T02:04:56;4.85;;;1.90;;
74851;SDS011;63400;50.650;6.832;2023-05-07T02:07:22;7.65;;;3.72;;
74851;SDS011;63400;50.650;6.832;2023-05-07T02:09:47;7.22;;;3.40;;
74851;SDS011;63400;50.650;6.832;2023-05-07T02:12:14;5.93;;;2.25;;
74851;SDS011;63400;50.650;6.832;2023-05-07T02:14:39;5.53;;;2.25;;
74851;SDS011;63400;50.650;6.832;2023-05-07T02:17:05;5.10;;;1.95;;
74851;SDS011;63400;50.650;6.832;2023-05-07T02:19:31;3.45;;;1.70;;
74851;SDS011;63400;50.650;6.832;2023-05-07T02:21:56;8.55;;;2.42;;
74851;SDS011;63400;50.650;6.832;2023-05-07T02:24:21;6.38;;;2.40;;
74851;SDS011;63400;50.650;6.832;2023-05-07T02:26:47;4.50;;;1.77;;
74851;SDS011;63400;50.650;6.832;2023-05-07T02:29:12;6.25;;;2.42;;
74851;SDS011;63400;50.650;6.832;2023-05-07T02:31:38;5.90;;;2.42;;
74851;SDS011;63400;50.650;6.832;2023-05-07T02:34:03;3.35;;;1.75;;
74851;SDS011;63400;50.650;6.832;2023-05-07T02:36:29;4.32;;;1.73;;
74851;SDS011;63400;50.650;6.832;2023-05-07T02:38:55;4.28;;;1.77;;
74851;SDS011;63400;50.650;6.832;2023-05-07T02:41:20;5.88;;;2.03;;
74851;SDS011;63400;50.650;6.832;2023-05-07T02:43:46;5.05;;;1.45;;
74851;SDS011;63400;50.650;6.832;2023-05-07T02:46:11;3.65;;;1.35;;
74851;SDS011;63400;50.650;6.832;2023-05-07T02:48:37;3.75;;;1.48;;
74851;SDS011;63400;50.650;6.832;2023-05-07T02:51:03;9.45;;;4.05;;
74851;SDS011;63400;50.650;6.832;2023-05-07T02:53:29;6.60;;;2.25;;
74851;SDS011;63400;50.650;6.832;2023-05-07T02:55:57;5.30;;;2.63;;
74851;SDS011;63400;50.650;6.832;2023-05-07T02:58:24;6.32;;;2.28;;
74851;SDS011;63400;50.650;6.832;2023-05-07T03:00:50;7.65;;;2.72;;
74851;SDS011;63400;50.650;6.832;2023-05-07T03:03:15;4.95;;;1.98;;
74851;SDS011;63400;50.650;6.832;2023-05-07T03:05:41;3.40;;;1.73;;
74851;SDS011;63400;50.650;6.832;2023-05-07T03:08:07;4.65;;;1.27;;
74851;SDS011;63400;50.650;6.832;2023-05-07T03:10:32;4.78;;;1.85;;
74851;SDS011;63400;50.650;6.832;2023-05-07T03:12:58;3.83;;;1.40;;
74851;SDS011;63400;50.650;6.832;2023-05-07T03:15:23;7.70;;;2.47;;
74851;SDS011;63400;50.650;6.832;2023-05-07T03:17:49;4.28;;;2.22;;
74851;SDS011;63400;50.650;6.832;2023-05-07T03:20:14;4.82;;;1.60;;
74851;SDS011;63400;50.650;6.832;2023-05-07T03:22:40;4.57;;;1.98;;
74851;SDS011;63400;50.650;6.832;2023-05-07T03:25:06;4.00;;;1.30;;
74851;SDS011;63400;50.650;6.832;2023-05-07T03:27:32;4.03;;;1.65;;
74851;SDS011;63400;50.650;6.832;2023-05-07T03:29:57;4.57;;;1.65;;
74851;SDS011;63400;50.650;6.832;2023-05-07T03:32:23;3.22;;;1.33;;
74851;SDS011;63400;50.650;6.832;2023-05-07T03:34:49;4.65;;;1.95;;
74851;SDS011;63400;50.650;6.832;2023-05-07T03:37:15;5.95;;;1.80;;
74851;SDS011;63400;50.650;6.832;2023-05-07T03:39:40;5.55;;;1.63;;
74851;SDS011;63400;50.650;6.832;2023-05-07T03:42:06;5.60;;;1.77;;
74851;SDS011;63400;50.650;6.832;2023-05-07T03:44:31;5.68;;;1.75;;
74851;SDS011;63400;50.650;6.832;2023-05-07T03:46:57;9.27;;;2.47;;
74851;SDS011;63400;50.650;6.832;2023-05-07T03:49:22;4.53;;;1.92;;
74851;SDS011;63400;50.650;6.832;2023-05-07T03:51:48;4.95;;;2.05;;
74851;SDS011;63400;50.650;6.832;2023-05-07T03:54:13;3.67;;;1.45;;
74851;SDS011;63400;50.650;6.832;2023-05-07T03:56:39;2.78;;;1.10;;
74851;SDS011;63400;50.650;6.832;2023-05-07T03:59:05;3.92;;;1.33;;
74851;SDS011;63400;50.650;6.832;2023-05-07T04:01:30;4.07;;;1.42;;
74851;SDS011;63400;50.650;6.832;2023-05-07T04:03:56;6.57;;;2.38;;
74851;SDS011;63400;50.650;6.832;2023-05-07T04:06:21;4.55;;;1.80;;
74851;SDS011;63400;50.650;6.832;2023-05-07T04:08:47;4.53;;;1.88;;
74851;SDS011;63400;50.650;6.832;2023-05-07T04:11:12;3.55;;;1.38;;
74851;SDS011;63400;50.650;6.832;2023-05-07T04:13:38;4.57;;;1.88;;
74851;SDS011;63400;50.650;6.832;2023-05-07T04:16:04;6.85;;;1.70;;
74851;SDS011;63400;50.650;6.832;2023-05-07T04:18:30;4.15;;;1.30;;
74851;SDS011;63400;50.650;6.832;2023-05-07T04:20:55;4.63;;;1.42;;
74851;SDS011;63400;50.650;6.832;2023-05-07T04:23:21;6.22;;;1.23;;
74851;SDS011;63400;50.650;6.832;2023-05-07T04:25:46;3.50;;;1.25;;
74851;SDS011;63400;50.650;6.832;2023-05-07T04:28:12;2.65;;;1.10;;
74851;SDS011;63400;50.650;6.832;2023-05-07T04:30:38;4.30;;;1.58;;
74851;SDS011;63400;50.650;6.832;2023-05-07T04:33:04;12.85;;;5.68;;
74851;SDS011;63400;50.650;6.832;2023-05-07T04:35:29;10.77;;;5.57;;
74851;SDS011;63400;50.650;6.832;2023-05-07T04:37:55;6.03;;;2.35;;
74851;SDS011;63400;50.650;6.832;2023-05-07T04:40:20;4.57;;;1.60;;
74851;SDS011;63400;50.650;6.832;2023-05-07T04:42:46;3.60;;;1.40;;
74851;SDS011;63400;50.650;6.832;2023-05-07T04:45:11;3.22;;;1.13;;
74851;SDS011;63400;50.650;6.832;2023-05-07T04:47:37;2.58;;;1.40;;
74851;SDS011;63400;50.650;6.832;2023-05-07T04:50:03;3.38;;;1.15;;
74851;SDS011;63400;50.650;6.832;2023-05-07T04:52:30;3.17;;;1.50;;
74851;SDS011;63400;50.650;6.832;2023-05-07T04:54:56;3.55;;;1.20;;
74851;SDS011;63400;50.650;6.832;2023-05-07T04:57:23;3.35;;;1.38;;
74851;SDS011;63400;50.650;6.832;2023-05-07T04:59:49;4.05;;;1.58;;
74851;SDS011;63400;50.650;6.832;2023-05-07T05:02:15;3.97;;;1.63;;
74851;SDS011;63400;50.650;6.832;2023-05-07T05:04:40;8.10;;;3.45;;
74851;SDS011;63400;50.650;6.832;2023-05-07T05:07:06;8.15;;;3.28;;
74851;SDS011;63400;50.650;6.832;2023-05-07T05:09:32;2.88;;;1.20;;
74851;SDS011;63400;50.650;6.832;2023-05-07T05:11:57;3.90;;;1.50;;
74851;SDS011;63400;50.650;6.832;2023-05-07T05:14:23;4.07;;;1.80;;
74851;SDS011;63400;50.650;6.832;2023-05-07T05:16:48;14.63;;;6.10;;
74851;SDS011;63400;50.650;6.832;2023-05-07T05:19:14;8.45;;;3.45;;
74851;SDS011;63400;50.650;6.832;2023-05-07T05:21:39;5.25;;;1.85;;
74851;SDS011;63400;50.650;6.832;2023-05-07T05:24:05;11.52;;;5.00;;
74851;SDS011;63400;50.650;6.832;2023-05-07T05:26:31;8.20;;;3.05;;
74851;SDS011;63400;50.650;6.832;2023-05-07T05:28:56;6.35;;;2.03;;
74851;SDS011;63400;50.650;6.832;2023-05-07T05:31:22;5.18;;;2.28;;
74851;SDS011;63400;50.650;6.832;2023-05-07T05:33:47;4.05;;;1.88;;
74851;SDS011;63400;50.650;6.832;2023-05-07T05:36:12;3.72;;;1.58;;
74851;SDS011;63400;50.650;6.832;2023-05-07T05:38:38;3.33;;;1.55;;
74851;SDS011;63400;50.650;6.832;2023-05-07T05:41:04;3.40;;;1.48;;
74851;SDS011;63400;50.650;6.832;2023-05-07T05:43:30;3.60;;;1.17;;
74851;SDS011;63400;50.650;6.832;2023-05-07T05:45:56;2.80;;;1.10;;
74851;SDS011;63400;50.650;6.832;2023-05-07T05:48:21;3.00;;;1.25;;
74851;SDS011;63400;50.650;6.832;2023-05-07T05:50:47;3.50;;;1.58;;
74851;SDS011;63400;50.650;6.832;2023-05-07T05:53:13;2.60;;;1.10;;
74851;SDS011;63400;50.650;6.832;2023-05-07T05:55:39;2.97;;;1.13;;
74851;SDS011;63400;50.650;6.832;2023-05-07T05:58:04;3.83;;;1.20;;
74851;SDS011;63400;50.650;6.832;2023-05-07T06:00:30;3.10;;;1.38;;
74851;SDS011;63400;50.650;6.832;2023-05-07T06:02:55;4.03;;;1.27;;
74851;SDS011;63400;50.650;6.832;2023-05-07T06:05:21;4.70;;;1.42;;
74851;SDS011;63400;50.650;6.832;2023-05-07T06:07:47;2.45;;;1.08;;
74851;SDS011;63400;50.650;6.832;2023-05-07T06:10:13;1.67;;;1.00;;
74851;SDS011;63400;50.650;6.832;2023-05-07T06:12:39;3.30;;;1.10;;
74851;SDS011;63400;50.650;6.832;2023-05-07T06:15:05;3.22;;;1.15;;
74851;SDS011;63400;50.650;6.832;2023-05-07T06:17:32;3.95;;;1.00;;
74851;SDS011;63400;50.650;6.832;2023-05-07T06:19:58;3.53;;;1.40;;
74851;SDS011;63400;50.650;6.832;2023-05-07T06:22:24;4.07;;;1.25;;
74851;SDS011;63400;50.650;6.832;2023-05-07T06:24:50;3.22;;;0.98;;
74851;SDS011;63400;50.650;6.832;2023-05-07T06:27:15;3.40;;;0.95;;
74851;SDS011;63400;50.650;6.832;2023-05-07T06:29:41;3.15;;;1.52;;
74851;SDS011;63400;50.650;6.832;2023-05-07T06:32:07;3.63;;;1.75;;
74851;SDS011;63400;50.650;6.832;2023-05-07T06:34:36;5.70;;;2.03;;
74851;SDS011;63400;50.650;6.832;2023-05-07T06:37:02;3.80;;;1.52;;
74851;SDS011;63400;50.650;6.832;2023-05-07T06:39:28;3.58;;;1.35;;
74851;SDS011;63400;50.650;6.832;2023-05-07T06:41:53;4.93;;;1.33;;
74851;SDS011;63400;50.650;6.832;2023-05-07T06:44:19;2.78;;;1.23;;
74851;SDS011;63400;50.650;6.832;2023-05-07T06:46:44;2.22;;;1.15;;
74851;SDS011;63400;50.650;6.832;2023-05-07T06:49:10;3.50;;;1.33;;
74851;SDS011;63400;50.650;6.832;2023-05-07T06:51:37;4.32;;;1.30;;
74851;SDS011;63400;50.650;6.832;2023-05-07T06:54:02;2.25;;;0.95;;
74851;SDS011;63400;50.650;6.832;2023-05-07T06:56:29;12.55;;;3.20;;
74851;SDS011;63400;50.650;6.832;2023-05-07T06:58:55;11.35;;;2.90;;
74851;SDS011;63400;50.650;6.832;2023-05-07T07:01:20;8.70;;;2.63;;
74851;SDS011;63400;50.650;6.832;2023-05-07T07:03:46;9.75;;;2.80;;
74851;SDS011;63400;50.650;6.832;2023-05-07T07:06:11;10.35;;;3.00;;
74851;SDS011;63400;50.650;6.832;2023-05-07T07:08:37;12.98;;;3.50;;
74851;SDS011;63400;50.650;6.832;2023-05-07T07:11:04;16.60;;;4.50;;
74851;SDS011;63400;50.650;6.832;2023-05-07T07:13:29;13.27;;;4.10;;
74851;SDS011;63400;50.650;6.832;2023-05-07T07:15:55;16.75;;;4.43;;
74851;SDS011;63400;50.650;6.832;2023-05-07T07:18:21;15.57;;;4.05;;
74851;SDS011;63400;50.650;6.832;2023-05-07T07:20:46;13.65;;;4.10;;
74851;SDS011;63400;50.650;6.832;2023-05-07T07:23:12;16.52;;;4.68;;
74851;SDS011;63400;50.650;6.832;2023-05-07T07:25:37;12.82;;;3.83;;
74851;SDS011;63400;50.650;6.832;2023-05-07T07:28:02;13.05;;;4.38;;
74851;SDS011;63400;50.650;6.832;2023-05-07T07:30:28;14.52;;;3.85;;
74851;SDS011;63400;50.650;6.832;2023-05-07T07:32:53;9.63;;;3.30;;
74851;SDS011;63400;50.650;6.832;2023-05-07T07:35:20;11.98;;;4.07;;
74851;SDS011;63400;50.650;6.832;2023-05-07T07:37:45;9.73;;;3.50;;
74851;SDS011;63400;50.650;6.832;2023-05-07T07:40:12;11.32;;;4.15;;
74851;SDS011;63400;50.650;6.832;2023-05-07T07:42:37;8.52;;;3.20;;
74851;SDS011;63400;50.650;6.832;2023-05-07T07:45:03;10.32;;;3.15;;
74851;SDS011;63400;50.650;6.832;2023-05-07T07:47:29;8.27;;;3.50;;
74851;SDS011;63400;50.650;6.832;2023-05-07T07:49:55;7.70;;;3.10;;
74851;SDS011;63400;50.650;6.832;2023-05-07T07:52:20;7.90;;;3.08;;
74851;SDS011;63400;50.650;6.832;2023-05-07T07:54:46;9.70;;;3.17;;
74851;SDS011;63400;50.650;6.832;2023-05-07T07:57:11;8.18;;;3.22;;
74851;SDS011;63400;50.650;6.832;2023-05-07T07:59:37;7.78;;;3.20;;
74851;SDS011;63400;50.650;6.832;2023-05-07T08:02:02;7.72;;;2.78;;
74851;SDS011;63400;50.650;6.832;2023-05-07T08:04:27;7.32;;;3.22;;
74851;SDS011;63400;50.650;6.832;2023-05-07T08:06:53;8.40;;;3.17;;
74851;SDS011;63400;50.650;6.832;2023-05-07T08:09:22;6.97;;;3.35;;
74851;SDS011;63400;50.650;6.832;2023-05-07T08:11:48;8.27;;;3.67;;
74851;SDS011;63400;50.650;6.832;2023-05-07T08:14:13;6.43;;;3.22;;
74851;SDS011;63400;50.650;6.832;2023-05-07T08:19:06;8.82;;;4.35;;
74851;SDS011;63400;50.650;6.832;2023-05-07T08:21:31;8.98;;;4.28;;
74851;SDS011;63400;50.650;6.832;2023-05-07T08:23:56;5.38;;;2.75;;
74851;SDS011;63400;50.650;6.832;2023-05-07T08:26:22;5.90;;;2.78;;
74851;SDS011;63400;50.650;6.832;2023-05-07T08:28:48;8.90;;;3.78;;
74851;SDS011;63400;50.650;6.832;2023-05-07T08:31:13;6.57;;;2.90;;
74851;SDS011;63400;50.650;6.832;2023-05-07T08:33:39;6.95;;;3.15;;
74851;SDS011;63400;50.650;6.832;2023-05-07T08:36:05;4.10;;;2.22;;
74851;SDS011;63400;50.650;6.832;2023-05-07T08:38:31;4.72;;;1.58;;
74851;SDS011;63400;50.650;6.832;2023-05-07T08:40:56;4.95;;;1.52;;
74851;SDS011;63400;50.650;6.832;2023-05-07T08:43:22;2.55;;;0.85;;
74851;SDS011;63400;50.650;6.832;2023-05-07T08:45:53;3.05;;;1.02;;
74851;SDS011;63400;50.650;6.832;2023-05-07T08:48:20;2.17;;;0.90;;
74851;SDS011;63400;50.650;6.832;2023-05-07T08:50:47;4.22;;;0.90;;
74851;SDS011;63400;50.650;6.832;2023-05-07T08:53:13;3.75;;;0.55;;
74851;SDS011;63400;50.650;6.832;2023-05-07T08:55:38;3.22;;;1.00;;
74851;SDS011;63400;50.650;6.832;2023-05-07T08:58:04;3.35;;;1.42;;
74851;SDS011;63400;50.650;6.832;2023-05-07T09:00:30;2.17;;;0.98;;
74851;SDS011;63400;50.650;6.832;2023-05-07T09:02:55;4.18;;;1.30;;
74851;SDS011;63400;50.650;6.832;2023-05-07T09:05:21;3.92;;;1.13;;
74851;SDS011;63400;50.650;6.832;2023-05-07T09:07:47;2.78;;;1.10;;
74851;SDS011;63400;50.650;6.832;2023-05-07T09:10:14;3.08;;;1.02;;
74851;SDS011;63400;50.650;6.832;2023-05-07T09:12:39;4.97;;;1.67;;
74851;SDS011;63400;50.650;6.832;2023-05-07T09:15:05;4.22;;;1.48;;
74851;SDS011;63400;50.650;6.832;2023-05-07T09:17:31;2.47;;;0.88;;
74851;SDS011;63400;50.650;6.832;2023-05-07T09:20:03;3.90;;;1.30;;
74851;SDS011;63400;50.650;6.832;2023-05-07T09:22:33;2.97;;;0.95;;
74851;SDS011;63400;50.650;6.832;2023-05-07T09:24:58;4.28;;;1.38;;
74851;SDS011;63400;50.650;6.832;2023-05-07T09:27:24;2.95;;;1.23;;
74851;SDS011;63400;50.650;6.832;2023-05-07T09:29:50;6.38;;;1.27;;
74851;SDS011;63400;50.650;6.832;2023-05-07T09:32:16;2.75;;;0.88;;
74851;SDS011;63400;50.650;6.832;2023-05-07T09:34:41;3.25;;;1.35;;
74851;SDS011;63400;50.650;6.832;2023-05-07T09:37:07;2.47;;;1.13;;
74851;SDS011;63400;50.650;6.832;2023-05-07T09:39:42;4.22;;;0.85;;
74851;SDS011;63400;50.650;6.832;2023-05-07T09:42:11;3.13;;;1.10;;
74851;SDS011;63400;50.650;6.832;2023-05-07T09:44:38;3.70;;;1.05;;
74851;SDS011;63400;50.650;6.832;2023-05-07T09:47:04;3.50;;;1.02;;
74851;SDS011;63400;50.650;6.832;2023-05-07T09:51:57;2.97;;;0.77;;
74851;SDS011;63400;50.650;6.832;2023-05-07T09:54:25;2.95;;;1.02;;
74851;SDS011;63400;50.650;6.832;2023-05-07T09:56:52;3.92;;;1.40;;
74851;SDS011;63400;50.650;6.832;2023-05-07T09:59:18;3.67;;;0.95;;
74851;SDS011;63400;50.650;6.832;2023-05-07T10:01:44;3.05;;;0.82;;
74851;SDS011;63400;50.650;6.832;2023-05-07T10:04:10;2.80;;;1.02;;
74851;SDS011;63400;50.650;6.832;2023-05-07T10:06:36;2.78;;;1.02;;
74851;SDS011;63400;50.650;6.832;2023-05-07T10:09:05;4.88;;;1.30;;
74851;SDS011;63400;50.650;6.832;2023-05-07T10:11:34;4.38;;;1.10;;
74851;SDS011;63400;50.650;6.832;2023-05-07T10:14:01;5.22;;;1.40;;
74851;SDS011;63400;50.650;6.832;2023-05-07T10:16:27;3.65;;;0.90;;
74851;SDS011;63400;50.650;6.832;2023-05-07T10:18:56;3.53;;;1.10;;
74851;SDS011;63400;50.650;6.832;2023-05-07T10:21:23;4.63;;;1.10;;
74851;SDS011;63400;50.650;6.832;2023-05-07T10:23:49;4.25;;;1.58;;
74851;SDS011;63400;50.650;6.832;2023-05-07T10:26:25;2.70;;;1.00;;
74851;SDS011;63400;50.650;6.832;2023-05-07T10:28:54;5.60;;;1.73;;
74851;SDS011;63400;50.650;6.832;2023-05-07T10:34:11;4.40;;;1.33;;
74851;SDS011;63400;50.650;6.832;2023-05-07T10:36:40;3.45;;;1.40;;
74851;SDS011;63400;50.650;6.832;2023-05-07T10:39:05;5.07;;;1.95;;
74851;SDS011;63400;50.650;6.832;2023-05-07T10:41:31;5.90;;;2.42;;
74851;SDS011;63400;50.650;6.832;2023-05-07T10:43:57;5.13;;;2.40;;
74851;SDS011;63400;50.650;6.832;2023-05-07T10:46:26;2.78;;;1.48;;
74851;SDS011;63400;50.650;6.832;2023-05-07T10:51:30;2.85;;;1.17;;
74851;SDS011;63400;50.650;6.832;2023-05-07T10:56:37;3.25;;;1.10;;
74851;SDS011;63400;50.650;6.832;2023-05-07T11:01:53;3.90;;;1.45;;
74851;SDS011;63400;50.650;6.832;2023-05-07T11:04:19;3.75;;;1.45;;
74851;SDS011;63400;50.650;6.832;2023-05-07T11:12:16;7.60;;;1.42;;
74851;SDS011;63400;50.650;6.832;2023-05-07T11:14:44;5.68;;;1.95;;
74851;SDS011;63400;50.650;6.832;2023-05-07T11:17:11;10.23;;;1.83;;
74851;SDS011;63400;50.650;6.832;2023-05-07T11:19:55;12.27;;;2.92;;
74851;SDS011;63400;50.650;6.832;2023-05-07T11:22:39;4.28;;;1.45;;
74851;SDS011;63400;50.650;6.832;2023-05-07T11:25:07;6.68;;;1.92;;
74851;SDS011;63400;50.650;6.832;2023-05-07T11:27:32;4.80;;;1.15;;
74851;SDS011;63400;50.650;6.832;2023-05-07T11:29:58;4.82;;;1.98;;
74851;SDS011;63400;50.650;6.832;2023-05-07T11:32:26;10.45;;;2.35;;
74851;SDS011;63400;50.650;6.832;2023-05-07T11:34:53;7.32;;;2.60;;
74851;SDS011;63400;50.650;6.832;2023-05-07T11:37:20;8.18;;;2.25;;
74851;SDS011;63400;50.650;6.832;2023-05-07T11:39:46;5.72;;;2.47;;
74851;SDS011;63400;50.650;6.832;2023-05-07T11:42:45;8.15;;;1.95;;
74851;SDS011;63400;50.650;6.832;2023-05-07T11:45:05;4.30;;;1.88;;
74851;SDS011;63400;50.650;6.832;2023-05-07T11:47:33;5.22;;;2.05;;
74851;SDS011;63400;50.650;6.832;2023-05-07T11:50:06;6.80;;;2.75;;
74851;SDS011;63400;50.650;6.832;2023-05-07T11:52:32;4.78;;;3.05;;
74851;SDS011;63400;50.650;6.832;2023-05-07T11:54:58;5.88;;;2.72;;
74851;SDS011;63400;50.650;6.832;2023-05-07T11:57:28;6.60;;;2.35;;
74851;SDS011;63400;50.650;6.832;2023-05-07T11:59:54;7.63;;;2.92;;
74851;SDS011;63400;50.650;6.832;2023-05-07T12:02:20;5.95;;;2.65;;
74851;SDS011;63400;50.650;6.832;2023-05-07T12:04:45;6.47;;;3.17;;
74851;SDS011;63400;50.650;6.832;2023-05-07T12:07:11;5.72;;;3.15;;
74851;SDS011;63400;50.650;6.832;2023-05-07T12:09:38;6.10;;;3.15;;
74851;SDS011;63400;50.650;6.832;2023-05-07T12:12:04;6.68;;;2.60;;
74851;SDS011;63400;50.650;6.832;2023-05-07T12:14:30;4.80;;;2.10;;
74851;SDS011;63400;50.650;6.832;2023-05-07T12:16:56;6.68;;;2.42;;
74851;SDS011;63400;50.650;6.832;2023-05-07T12:19:22;6.93;;;2.65;;
74851;SDS011;63400;50.650;6.832;2023-05-07T12:21:48;8.82;;;2.95;;
74851;SDS011;63400;50.650;6.832;2023-05-07T12:24:16;7.95;;;2.70;;
74851;SDS011;63400;50.650;6.832;2023-05-07T12:26:41;5.97;;;2.83;;
74851;SDS011;63400;50.650;6.832;2023-05-07T12:29:08;4.80;;;2.55;;
74851;SDS011;63400;50.650;6.832;2023-05-07T12:31:33;7.20;;;3.30;;
74851;SDS011;63400;50.650;6.832;2023-05-07T12:33:59;6.13;;;2.85;;
74851;SDS011;63400;50.650;6.832;2023-05-07T12:36:25;4.55;;;2.90;;
74851;SDS011;63400;50.650;6.832;2023-05-07T12:38:50;8.32;;;2.88;;
74851;SDS011;63400;50.650;6.832;2023-05-07T12:41:16;6.78;;;2.83;;
74851;SDS011;63400;50.650;6.832;2023-05-07T12:43:45;4.97;;;2.65;;
74851;SDS011;63400;50.650;6.832;2023-05-07T12:46:11;6.85;;;2.88;;
74851;SDS011;63400;50.650;6.832;2023-05-07T12:48:42;4.60;;;2.50;;
74851;SDS011;63400;50.650;6.832;2023-05-07T12:51:10;6.88;;;2.80;;
74851;SDS011;63400;50.650;6.832;2023-05-07T12:53:41;6.20;;;2.58;;
74851;SDS011;63400;50.650;6.832;2023-05-07T12:56:07;6.82;;;3.83;;
74851;SDS011;63400;50.650;6.832;2023-05-07T12:58:33;6.93;;;3.63;;
74851;SDS011;63400;50.650;6.832;2023-05-07T13:01:00;9.27;;;3.90;;
74851;SDS011;63400;50.650;6.832;2023-05-07T13:03:29;9.13;;;5.18;;
74851;SDS011;63400;50.650;6.832;2023-05-07T13:05:58;5.90;;;3.45;;
74851;SDS011;63400;50.650;6.832;2023-05-07T13:08:34;7.53;;;3.80;;
74851;SDS011;63400;50.650;6.832;2023-05-07T13:11:06;6.47;;;3.50;;
74851;SDS011;63400;50.650;6.832;2023-05-07T13:13:34;4.88;;;2.90;;
74851;SDS011;63400;50.650;6.832;2023-05-07T13:16:03;6.18;;;3.00;;
74851;SDS011;63400;50.650;6.832;2023-05-07T13:18:30;9.73;;;4.70;;
74851;SDS011;63400;50.650;6.832;2023-05-07T13:20:56;8.05;;;3.50;;
74851;SDS011;63400;50.650;6.832;2023-05-07T13:23:22;8.30;;;4.00;;
74851;SDS011;63400;50.650;6.832;2023-05-07T13:25:48;8.43;;;3.67;;
74851;SDS011;63400;50.650;6.832;2023-05-07T13:28:14;9.20;;;3.25;;
74851;SDS011;63400;50.650;6.832;2023-05-07T13:30:40;7.75;;;4.00;;
74851;SDS011;63400;50.650;6.832;2023-05-07T13:33:08;9.40;;;3.15;;
74851;SDS011;63400;50.650;6.832;2023-05-07T13:35:34;8.13;;;3.38;;
74851;SDS011;63400;50.650;6.832;2023-05-07T13:37:59;6.40;;;3.20;;
74851;SDS011;63400;50.650;6.832;2023-05-07T13:40:25;5.88;;;3.60;;
74851;SDS011;63400;50.650;6.832;2023-05-07T13:42:51;7.18;;;3.83;;
74851;SDS011;63400;50.650;6.832;2023-05-07T13:45:17;10.10;;;4.45;;
74851;SDS011;63400;50.650;6.832;2023-05-07T13:47:43;10.55;;;4.20;;
74851;SDS011;63400;50.650;6.832;2023-05-07T13:50:09;9.88;;;4.32;;
74851;SDS011;63400;50.650;6.832;2023-05-07T13:52:36;10.07;;;4.80;;
74851;SDS011;63400;50.650;6.832;2023-05-07T13:55:02;10.30;;;5.00;;
74851;SDS011;63400;50.650;6.832;2023-05-07T13:57:28;9.55;;;4.15;;
74851;SDS011;63400;50.650;6.832;2023-05-07T13:59:53;8.98;;;3.67;;
74851;SDS011;63400;50.650;6.832;2023-05-07T14:02:19;10.02;;;4.40;;
74851;SDS011;63400;50.650;6.832;2023-05-07T14:04:45;6.43;;;3.65;;
74851;SDS011;63400;50.650;6.832;2023-05-07T14:07:10;8.48;;;5.00;;
74851;SDS011;63400;50.650;6.832;2023-05-07T14:09:36;9.50;;;5.18;;
74851;SDS011;63400;50.650;6.832;2023-05-07T14:12:01;11.32;;;5.20;;
74851;SDS011;63400;50.650;6.832;2023-05-07T14:14:27;8.70;;;4.85;;
74851;SDS011;63400;50.650;6.832;2023-05-07T14:16:52;9.95;;;5.65;;
74851;SDS011;63400;50.650;6.832;2023-05-07T14:19:18;10.00;;;5.20;;
74851;SDS011;63400;50.650;6.832;2023-05-07T14:21:43;12.88;;;5.90;;
74851;SDS011;63400;50.650;6.832;2023-05-07T14:24:19;8.55;;;5.10;;
74851;SDS011;63400;50.650;6.832;2023-05-07T14:26:44;10.40;;;5.03;;
74851;SDS011;63400;50.650;6.832;2023-05-07T14:29:10;8.60;;;4.68;;
74851;SDS011;63400;50.650;6.832;2023-05-07T14:31:35;7.43;;;3.88;;
74851;SDS011;63400;50.650;6.832;2023-05-07T14:34:01;8.85;;;4.15;;
74851;SDS011;63400;50.650;6.832;2023-05-07T14:36:27;7.57;;;4.00;;
74851;SDS011;63400;50.650;6.832;2023-05-07T14:38:53;7.72;;;3.60;;
74851;SDS011;63400;50.650;6.832;2023-05-07T14:41:20;7.47;;;3.30;;
74851;SDS011;63400;50.650;6.832;2023-05-07T14:43:47;8.20;;;3.72;;
74851;SDS011;63400;50.650;6.832;2023-05-07T14:46:17;8.95;;;4.60;;
74851;SDS011;63400;50.650;6.832;2023-05-07T14:48:46;8.80;;;4.43;;
74851;SDS011;63400;50.650;6.832;2023-05-07T14:51:12;8.20;;;4.82;;
74851;SDS011;63400;50.650;6.832;2023-05-07T14:53:38;10.23;;;4.45;;
74851;SDS011;63400;50.650;6.832;2023-05-07T14:56:04;8.02;;;4.00;;
74851;SDS011;63400;50.650;6.832;2023-05-07T14:58:30;10.50;;;5.55;;
74851;SDS011;63400;50.650;6.832;2023-05-07T15:00:56;8.50;;;4.50;;
74851;SDS011;63400;50.650;6.832;2023-05-07T15:03:21;8.02;;;4.80;;